sensor_id;sensor_type;location;lat;lon;timestamp;pressure;altitude;pressure_sealevel;temperature;humidity
19553;BME280;9420;50.876;7.012;2023-05-03T00:01:46;102231.00;;;41.44;17.85
19553;BME280;9420;50.876;7.012;2023-05-03T00:04:15;102221.41;;;41.27;17.58
19553;BME280;9420;50.876;7.012;2023-05-03T00:06:43;102228.25;;;41.57;17.69
19553;BME280;9420;50.876;7.012;2023-05-03T00:09:10;102216.16;;;41.65;17.55
19553;BME280;9420;50.876;7.012;2023-05-03T00:11:38;102219.78;;;41.85;17.26
19553;BME280;9420;50.876;7.012;2023-05-03T00:14:05;102222.94;;;42.02;17.29
19553;BME280;9420;50.876;7.012;2023-05-03T00:16:32;102214.00;;;41.54;17.79
19553;BME280;9420;50.876;7.012;2023-05-03T00:18:59;102217.41;;;41.49;17.73
19553;BME280;9420;50.876;7.012;2023-05-03T00:21:26;102212.28;;;41.33;17.64
19553;BME280;9420;50.876;7.012;2023-05-03T00:23:54;102208.47;;;41.47;17.33
19553;BME280;9420;50.876;7.012;2023-05-03T00:26:21;102209.69;;;41.12;17.75
19553;BME280;9420;50.876;7.012;2023-05-03T00:28:50;102212.97;;;41.81;17.30
19553;BME280;9420;50.876;7.012;2023-05-03T00:31:17;102206.34;;;41.62;17.43
19553;BME280;9420;50.876;7.012;2023-05-03T00:33:44;102202.09;;;41.53;17.36
19553;BME280;9420;50.876;7.012;2023-05-03T00:36:13;102206.75;;;41.33;17.52
19553;BME280;9420;50.876;7.012;2023-05-03T00:38:41;102202.50;;;41.63;17.58
19553;BME280;9420;50.876;7.012;2023-05-03T00:41:10;102200.59;;;41.90;17.37
19553;BME280;9420;50.876;7.012;2023-05-03T00:43:38;102206.94;;;40.58;18.07
19553;BME280;9420;50.876;7.012;2023-05-03T00:46:08;102213.28;;;40.52;17.95
19553;BME280;9420;50.876;7.012;2023-05-03T00:48:36;102210.34;;;41.14;17.54
19553;BME280;9420;50.876;7.012;2023-05-03T00:51:05;102224.50;;;40.85;17.72
19553;BME280;9420;50.876;7.012;2023-05-03T00:53:33;102220.16;;;41.43;17.86
19553;BME280;9420;50.876;7.012;2023-05-03T00:56:01;102217.84;;;41.27;17.71
19553;BME280;9420;50.876;7.012;2023-05-03T00:58:30;102218.25;;;41.30;17.62
19553;BME280;9420;50.876;7.012;2023-05-03T01:01:01;102210.06;;;40.96;17.42
19553;BME280;9420;50.876;7.012;2023-05-03T01:03:30;102216.94;;;40.59;17.86
19553;BME280;9420;50.876;7.012;2023-05-03T01:06:13;102219.41;;;40.88;17.60
19553;BME280;9420;50.876;7.012;2023-05-03T01:08:51;102216.47;;;41.03;17.69
19553;BME280;9420;50.876;7.012;2023-05-03T01:11:26;102209.13;;;40.76;17.37
19553;BME280;9420;50.876;7.012;2023-05-03T01:14:05;102210.50;;;40.93;17.49
19553;BME280;9420;50.876;7.012;2023-05-03T01:16:42;102211.38;;;41.13;17.41
19553;BME280;9420;50.876;7.012;2023-05-03T01:19:25;102202.66;;;40.56;17.67
19553;BME280;9420;50.876;7.012;2023-05-03T01:22:06;102208.59;;;40.46;17.96
19553;BME280;9420;50.876;7.012;2023-05-03T01:24:40;102199.91;;;40.56;17.84
19553;BME280;9420;50.876;7.012;2023-05-03T01:27:09;102207.50;;;40.88;17.64
19553;BME280;9420;50.876;7.012;2023-05-03T01:29:36;102211.84;;;40.28;17.90
19553;BME280;9420;50.876;7.012;2023-05-03T01:32:12;102209.09;;;40.63;17.68
19553;BME280;9420;50.876;7.012;2023-05-03T01:34:49;102205.41;;;40.96;17.60
19553;BME280;9420;50.876;7.012;2023-05-03T01:37:17;102212.22;;;41.07;17.52
19553;BME280;9420;50.876;7.012;2023-05-03T01:39:52;102216.06;;;41.19;17.63
19553;BME280;9420;50.876;7.012;2023-05-03T01:42:24;102215.25;;;41.25;17.49
19553;BME280;9420;50.876;7.012;2023-05-03T01:44:53;102212.50;;;40.71;17.70
19553;BME280;9420;50.876;7.012;2023-05-03T01:47:21;102211.19;;;40.61;17.83
19553;BME280;9420;50.876;7.012;2023-05-03T01:49:48;102204.97;;;41.06;17.56
19553;BME280;9420;50.876;7.012;2023-05-03T01:52:15;102215.38;;;40.43;17.88
19553;BME280;9420;50.876;7.012;2023-05-03T01:54:42;102214.59;;;40.63;17.94
19553;BME280;9420;50.876;7.012;2023-05-03T01:57:10;102210.94;;;41.03;17.41
19553;BME280;9420;50.876;7.012;2023-05-03T01:59:38;102223.28;;;41.13;17.39
19553;BME280;9420;50.876;7.012;2023-05-03T02:02:05;102225.41;;;41.11;17.49
19553;BME280;9420;50.876;7.012;2023-05-03T02:04:32;102221.97;;;40.90;17.60
19553;BME280;9420;50.876;7.012;2023-05-03T02:06:59;102224.75;;;40.56;17.56
19553;BME280;9420;50.876;7.012;2023-05-03T02:09:26;102226.41;;;40.43;17.68
19553;BME280;9420;50.876;7.012;2023-05-03T02:11:54;102230.28;;;40.56;17.49
19553;BME280;9420;50.876;7.012;2023-05-03T02:14:21;102232.84;;;40.51;17.59
19553;BME280;9420;50.876;7.012;2023-05-03T02:16:50;102234.53;;;40.99;17.41
19553;BME280;9420;50.876;7.012;2023-05-03T02:19:19;102232.59;;;40.93;17.34
19553;BME280;9420;50.876;7.012;2023-05-03T02:21:46;102235.22;;;41.14;17.27
19553;BME280;9420;50.876;7.012;2023-05-03T02:24:13;102236.31;;;40.31;17.62
19553;BME280;9420;50.876;7.012;2023-05-03T02:26:41;102239.41;;;40.50;17.68
19553;BME280;9420;50.876;7.012;2023-05-03T02:29:08;102242.47;;;40.33;17.98
19553;BME280;9420;50.876;7.012;2023-05-03T02:31:35;102236.53;;;40.30;17.75
19553;BME280;9420;50.876;7.012;2023-05-03T02:34:04;102254.09;;;40.57;17.78
19553;BME280;9420;50.876;7.012;2023-05-03T02:36:31;102255.09;;;40.15;17.68
19553;BME280;9420;50.876;7.012;2023-05-03T02:38:58;102253.94;;;40.37;17.61
19553;BME280;9420;50.876;7.012;2023-05-03T02:41:25;102256.03;;;41.10;17.35
19553;BME280;9420;50.876;7.012;2023-05-03T02:43:52;102257.88;;;40.42;17.37
19553;BME280;9420;50.876;7.012;2023-05-03T02:46:19;102261.75;;;40.55;17.60
19553;BME280;9420;50.876;7.012;2023-05-03T02:48:46;102263.44;;;40.56;17.50
19553;BME280;9420;50.876;7.012;2023-05-03T02:51:15;102259.97;;;40.40;17.22
19553;BME280;9420;50.876;7.012;2023-05-03T02:53:42;102260.84;;;39.92;17.77
19553;BME280;9420;50.876;7.012;2023-05-03T02:56:09;102253.88;;;39.96;17.63
19553;BME280;9420;50.876;7.012;2023-05-03T02:58:36;102253.22;;;39.94;17.66
19553;BME280;9420;50.876;7.012;2023-05-03T03:01:03;102252.13;;;39.61;17.69
19553;BME280;9420;50.876;7.012;2023-05-03T03:03:30;102258.25;;;39.42;17.76
19553;BME280;9420;50.876;7.012;2023-05-03T03:05:57;102257.59;;;39.19;17.63
19553;BME280;9420;50.876;7.012;2023-05-03T03:08:26;102240.47;;;39.93;17.88
19553;BME280;9420;50.876;7.012;2023-05-03T03:10:53;102243.94;;;40.64;17.38
19553;BME280;9420;50.876;7.012;2023-05-03T03:13:20;102239.06;;;40.31;17.54
19553;BME280;9420;50.876;7.012;2023-05-03T03:15:47;102252.31;;;39.87;17.63
19553;BME280;9420;50.876;7.012;2023-05-03T03:18:14;102237.50;;;40.91;17.10
19553;BME280;9420;50.876;7.012;2023-05-03T03:20:42;102242.81;;;40.17;17.46
19553;BME280;9420;50.876;7.012;2023-05-03T03:23:09;102240.13;;;39.75;17.70
19553;BME280;9420;50.876;7.012;2023-05-03T03:25:37;102240.66;;;39.64;17.85
19553;BME280;9420;50.876;7.012;2023-05-03T03:28:04;102230.19;;;39.81;17.61
19553;BME280;9420;50.876;7.012;2023-05-03T03:30:31;102231.31;;;39.58;17.51
19553;BME280;9420;50.876;7.012;2023-05-03T03:32:59;102233.31;;;39.50;17.89
19553;BME280;9420;50.876;7.012;2023-05-03T03:35:26;102234.63;;;39.33;17.83
19553;BME280;9420;50.876;7.012;2023-05-03T03:37:53;102229.19;;;40.09;17.36
19553;BME280;9420;50.876;7.012;2023-05-03T03:40:20;102232.53;;;39.56;17.47
19553;BME280;9420;50.876;7.012;2023-05-03T03:42:48;102227.31;;;39.67;17.68
19553;BME280;9420;50.876;7.012;2023-05-03T03:45:16;102245.38;;;39.28;17.95
19553;BME280;9420;50.876;7.012;2023-05-03T03:47:43;102231.22;;;39.52;17.84
19553;BME280;9420;50.876;7.012;2023-05-03T03:50:10;102235.56;;;39.19;17.75
19553;BME280;9420;50.876;7.012;2023-05-03T03:52:37;102221.75;;;39.82;17.66
19553;BME280;9420;50.876;7.012;2023-05-03T03:55:05;102219.75;;;39.76;17.62
19553;BME280;9420;50.876;7.012;2023-05-03T03:57:32;102219.31;;;39.51;17.50
19553;BME280;9420;50.876;7.012;2023-05-03T04:00:01;102222.28;;;39.50;17.66
19553;BME280;9420;50.876;7.012;2023-05-03T04:02:33;102222.44;;;39.21;17.69
19553;BME280;9420;50.876;7.012;2023-05-03T04:05:00;102227.16;;;39.27;18.09
19553;BME280;9420;50.876;7.012;2023-05-03T04:07:27;102228.84;;;39.28;17.71
19553;BME280;9420;50.876;7.012;2023-05-03T04:09:54;102228.72;;;39.15;17.87
19553;BME280;9420;50.876;7.012;2023-05-03T04:12:23;102212.72;;;39.46;17.89
19553;BME280;9420;50.876;7.012;2023-05-03T04:14:50;102211.00;;;40.21;17.42
19553;BME280;9420;50.876;7.012;2023-05-03T04:17:19;102211.00;;;40.21;17.40
19553;BME280;9420;50.876;7.012;2023-05-03T04:19:46;102211.25;;;40.33;17.30
19553;BME280;9420;50.876;7.012;2023-05-03T04:22:13;102216.00;;;39.56;17.88
19553;BME280;9420;50.876;7.012;2023-05-03T04:24:40;102212.22;;;39.57;17.89
19553;BME280;9420;50.876;7.012;2023-05-03T04:27:07;102208.84;;;39.19;17.77
19553;BME280;9420;50.876;7.012;2023-05-03T04:29:34;102194.75;;;40.05;17.54
19553;BME280;9420;50.876;7.012;2023-05-03T04:32:03;102195.97;;;39.47;17.62
19553;BME280;9420;50.876;7.012;2023-05-03T04:34:32;102187.84;;;39.88;17.82
19553;BME280;9420;50.876;7.012;2023-05-03T04:36:59;102191.63;;;39.87;17.81
19553;BME280;9420;50.876;7.012;2023-05-03T04:39:26;102190.81;;;39.93;17.71
19553;BME280;9420;50.876;7.012;2023-05-03T04:41:54;102200.88;;;39.73;17.90
19553;BME280;9420;50.876;7.012;2023-05-03T04:44:21;102208.19;;;39.87;17.78
19553;BME280;9420;50.876;7.012;2023-05-03T04:46:48;102213.28;;;40.11;17.59
19553;BME280;9420;50.876;7.012;2023-05-03T04:49:15;102229.75;;;40.80;17.41
19553;BME280;9420;50.876;7.012;2023-05-03T04:51:43;102220.03;;;40.84;17.39
19553;BME280;9420;50.876;7.012;2023-05-03T04:54:10;102231.03;;;40.36;17.46
19553;BME280;9420;50.876;7.012;2023-05-03T04:56:38;102234.97;;;39.93;17.86
19553;BME280;9420;50.876;7.012;2023-05-03T04:59:05;102236.16;;;40.39;17.50
19553;BME280;9420;50.876;7.012;2023-05-03T05:01:32;102240.72;;;41.20;17.33
19553;BME280;9420;50.876;7.012;2023-05-03T05:03:59;102242.06;;;41.38;17.15
19553;BME280;9420;50.876;7.012;2023-05-03T05:06:26;102239.38;;;41.64;17.06
19553;BME280;9420;50.876;7.012;2023-05-03T05:08:54;102247.66;;;41.64;17.24
19553;BME280;9420;50.876;7.012;2023-05-03T05:11:22;102239.94;;;41.46;17.44
19553;BME280;9420;50.876;7.012;2023-05-03T05:13:49;102249.53;;;41.37;17.27
19553;BME280;9420;50.876;7.012;2023-05-03T05:16:16;102245.31;;;41.80;16.98
19553;BME280;9420;50.876;7.012;2023-05-03T05:18:43;102243.38;;;42.07;16.76
19553;BME280;9420;50.876;7.012;2023-05-03T05:21:10;102241.81;;;42.37;16.78
19553;BME280;9420;50.876;7.012;2023-05-03T05:23:39;102248.88;;;42.01;17.12
19553;BME280;9420;50.876;7.012;2023-05-03T05:26:09;102243.31;;;42.40;17.07
19553;BME280;9420;50.876;7.012;2023-05-03T05:28:36;102247.13;;;42.39;16.87
19553;BME280;9420;50.876;7.012;2023-05-03T05:31:03;102256.50;;;42.51;16.88
19553;BME280;9420;50.876;7.012;2023-05-03T05:33:30;102252.16;;;42.68;16.62
19553;BME280;9420;50.876;7.012;2023-05-03T05:35:57;102253.00;;;42.75;16.82
19553;BME280;9420;50.876;7.012;2023-05-03T05:38:24;102264.19;;;42.49;16.83
19553;BME280;9420;50.876;7.012;2023-05-03T05:40:52;102267.88;;;42.94;17.02
19553;BME280;9420;50.876;7.012;2023-05-03T05:43:20;102274.28;;;43.32;16.98
19553;BME280;9420;50.876;7.012;2023-05-03T05:45:47;102281.13;;;42.72;17.12
19553;BME280;9420;50.876;7.012;2023-05-03T05:48:14;102281.22;;;41.48;17.27
19553;BME280;9420;50.876;7.012;2023-05-03T05:50:42;102284.63;;;43.05;16.72
19553;BME280;9420;50.876;7.012;2023-05-03T05:53:09;102286.34;;;43.44;16.52
19553;BME280;9420;50.876;7.012;2023-05-03T05:55:36;102290.63;;;43.96;16.46
19553;BME280;9420;50.876;7.012;2023-05-03T05:58:04;102290.69;;;43.89;16.49
19553;BME280;9420;50.876;7.012;2023-05-03T06:00:33;102289.78;;;43.39;16.73
19553;BME280;9420;50.876;7.012;2023-05-03T06:03:01;102290.03;;;43.69;16.74
19553;BME280;9420;50.876;7.012;2023-05-03T06:05:28;102288.47;;;43.49;16.39
19553;BME280;9420;50.876;7.012;2023-05-03T06:07:55;102292.63;;;43.58;16.44
19553;BME280;9420;50.876;7.012;2023-05-03T06:10:22;102291.31;;;43.67;16.27
19553;BME280;9420;50.876;7.012;2023-05-03T06:12:49;102291.88;;;42.49;16.90
19553;BME280;9420;50.876;7.012;2023-05-03T06:15:16;102284.69;;;43.36;16.72
19553;BME280;9420;50.876;7.012;2023-05-03T06:17:44;102298.69;;;43.48;16.22
19553;BME280;9420;50.876;7.012;2023-05-03T06:20:12;102285.63;;;44.29;15.97
19553;BME280;9420;50.876;7.012;2023-05-03T06:22:39;102288.97;;;43.95;16.16
19553;BME280;9420;50.876;7.012;2023-05-03T06:25:07;102291.31;;;44.16;16.14
19553;BME280;9420;50.876;7.012;2023-05-03T06:27:34;102293.03;;;44.17;15.78
19553;BME280;9420;50.876;7.012;2023-05-03T06:30:01;102286.38;;;44.61;15.66
19553;BME280;9420;50.876;7.012;2023-05-03T06:32:28;102284.53;;;44.12;15.70
19553;BME280;9420;50.876;7.012;2023-05-03T06:34:57;102287.47;;;44.17;16.00
19553;BME280;9420;50.876;7.012;2023-05-03T06:37:25;102293.25;;;45.06;15.79
19553;BME280;9420;50.876;7.012;2023-05-03T06:39:53;102291.09;;;44.78;15.83
19553;BME280;9420;50.876;7.012;2023-05-03T06:42:19;102291.81;;;45.22;15.99
19553;BME280;9420;50.876;7.012;2023-05-03T06:44:47;102287.84;;;44.81;15.78
19553;BME280;9420;50.876;7.012;2023-05-03T06:47:14;102292.44;;;45.06;15.77
19553;BME280;9420;50.876;7.012;2023-05-03T06:49:41;102300.25;;;44.97;15.48
19553;BME280;9420;50.876;7.012;2023-05-03T06:52:09;102300.75;;;44.15;15.88
19553;BME280;9420;50.876;7.012;2023-05-03T06:54:36;102290.66;;;45.41;15.59
19553;BME280;9420;50.876;7.012;2023-05-03T06:57:05;102300.91;;;45.29;15.89
19553;BME280;9420;50.876;7.012;2023-05-03T06:59:32;102299.25;;;46.15;16.08
19553;BME280;9420;50.876;7.012;2023-05-03T07:01:59;102299.19;;;44.80;16.13
19553;BME280;9420;50.876;7.012;2023-05-03T07:04:26;102294.50;;;46.74;15.37
19553;BME280;9420;50.876;7.012;2023-05-03T07:06:54;102287.56;;;46.88;15.00
19553;BME280;9420;50.876;7.012;2023-05-03T07:09:23;102290.63;;;44.81;16.09
19553;BME280;9420;50.876;7.012;2023-05-03T07:11:50;102285.31;;;45.81;15.52
19553;BME280;9420;50.876;7.012;2023-05-03T07:14:17;102278.94;;;46.03;15.22
19553;BME280;9420;50.876;7.012;2023-05-03T07:16:44;102278.53;;;47.09;15.28
19553;BME280;9420;50.876;7.012;2023-05-03T07:19:11;102282.41;;;47.08;15.18
19553;BME280;9420;50.876;7.012;2023-05-03T07:21:38;102287.66;;;47.21;14.73
19553;BME280;9420;50.876;7.012;2023-05-03T07:24:05;102281.06;;;47.10;15.26
19553;BME280;9420;50.876;7.012;2023-05-03T07:26:34;102289.09;;;47.68;14.88
19553;BME280;9420;50.876;7.012;2023-05-03T07:29:02;102284.53;;;47.62;14.73
19553;BME280;9420;50.876;7.012;2023-05-03T07:31:30;102277.94;;;47.52;14.61
19553;BME280;9420;50.876;7.012;2023-05-03T07:33:57;102276.88;;;46.85;15.12
19553;BME280;9420;50.876;7.012;2023-05-03T07:36:24;102272.72;;;47.88;14.72
19553;BME280;9420;50.876;7.012;2023-05-03T07:38:51;102275.09;;;47.35;14.86
19553;BME280;9420;50.876;7.012;2023-05-03T07:41:18;102269.50;;;48.35;14.63
19553;BME280;9420;50.876;7.012;2023-05-03T07:43:46;102267.56;;;47.19;14.70
19553;BME280;9420;50.876;7.012;2023-05-03T07:46:14;102257.44;;;48.13;14.45
19553;BME280;9420;50.876;7.012;2023-05-03T07:48:41;102267.63;;;47.52;14.58
19553;BME280;9420;50.876;7.012;2023-05-03T07:51:08;102248.84;;;47.81;14.52
19553;BME280;9420;50.876;7.012;2023-05-03T07:53:35;102252.22;;;47.83;14.82
19553;BME280;9420;50.876;7.012;2023-05-03T07:56:05;102248.03;;;47.19;14.65
19553;BME280;9420;50.876;7.012;2023-05-03T07:58:33;102253.91;;;48.39;14.17
19553;BME280;9420;50.876;7.012;2023-05-03T08:01:01;102246.31;;;46.90;14.29
19553;BME280;9420;50.876;7.012;2023-05-03T08:03:30;102235.78;;;48.63;14.25
19553;BME280;9420;50.876;7.012;2023-05-03T08:05:57;102226.72;;;48.99;14.18
19553;BME280;9420;50.876;7.012;2023-05-03T08:08:24;102225.03;;;48.77;14.46
19553;BME280;9420;50.876;7.012;2023-05-03T08:10:51;102230.84;;;47.27;14.73
19553;BME280;9420;50.876;7.012;2023-05-03T08:13:18;102225.53;;;48.09;14.63
19553;BME280;9420;50.876;7.012;2023-05-03T08:15:47;102216.41;;;48.35;14.52
19553;BME280;9420;50.876;7.012;2023-05-03T08:18:15;102227.66;;;47.35;14.26
19553;BME280;9420;50.876;7.012;2023-05-03T08:20:43;102221.38;;;47.28;14.88
19553;BME280;9420;50.876;7.012;2023-05-03T08:23:11;102220.13;;;48.02;14.08
19553;BME280;9420;50.876;7.012;2023-05-03T08:25:38;102226.25;;;48.21;14.14
19553;BME280;9420;50.876;7.012;2023-05-03T08:28:07;102234.28;;;49.94;13.59
19553;BME280;9420;50.876;7.012;2023-05-03T08:30:35;102231.50;;;49.94;13.42
19553;BME280;9420;50.876;7.012;2023-05-03T08:33:02;102224.25;;;50.03;13.53
19553;BME280;9420;50.876;7.012;2023-05-03T08:35:32;102226.97;;;50.45;13.61
19553;BME280;9420;50.876;7.012;2023-05-03T08:37:59;102218.38;;;50.61;13.41
19553;BME280;9420;50.876;7.012;2023-05-03T08:40:27;102224.06;;;48.88;13.53
19553;BME280;9420;50.876;7.012;2023-05-03T08:42:55;102213.81;;;50.40;13.65
19553;BME280;9420;50.876;7.012;2023-05-03T08:45:25;102223.78;;;50.16;13.08
19553;BME280;9420;50.876;7.012;2023-05-03T08:47:53;102219.16;;;49.26;13.40
19553;BME280;9420;50.876;7.012;2023-05-03T08:50:21;102218.78;;;50.28;13.21
19553;BME280;9420;50.876;7.012;2023-05-03T08:52:50;102213.78;;;50.35;13.02
19553;BME280;9420;50.876;7.012;2023-05-03T08:55:17;102213.22;;;49.50;13.75
19553;BME280;9420;50.876;7.012;2023-05-03T08:57:44;102215.25;;;49.27;14.05
19553;BME280;9420;50.876;7.012;2023-05-03T09:00:12;102211.19;;;48.65;13.64
19553;BME280;9420;50.876;7.012;2023-05-03T09:02:40;102204.38;;;49.68;13.93
19553;BME280;9420;50.876;7.012;2023-05-03T09:05:30;102197.75;;;47.80;14.26
19553;BME280;9420;50.876;7.012;2023-05-03T09:08:05;102197.84;;;49.20;13.58
19553;BME280;9420;50.876;7.012;2023-05-03T09:10:36;102197.53;;;47.70;14.49
19553;BME280;9420;50.876;7.012;2023-05-03T09:13:04;102198.50;;;50.06;13.26
19553;BME280;9420;50.876;7.012;2023-05-03T09:15:32;102195.69;;;50.06;12.98
19553;BME280;9420;50.876;7.012;2023-05-03T09:18:11;102199.41;;;49.75;13.16
19553;BME280;9420;50.876;7.012;2023-05-03T09:20:39;102203.84;;;50.79;13.29
19553;BME280;9420;50.876;7.012;2023-05-03T09:23:09;102198.22;;;50.74;13.91
19553;BME280;9420;50.876;7.012;2023-05-03T09:25:44;102192.16;;;51.38;13.06
19553;BME280;9420;50.876;7.012;2023-05-03T09:28:12;102193.97;;;49.58;13.80
19553;BME280;9420;50.876;7.012;2023-05-03T09:30:40;102192.72;;;49.12;13.21
19553;BME280;9420;50.876;7.012;2023-05-03T09:33:08;102188.63;;;48.98;13.70
19553;BME280;9420;50.876;7.012;2023-05-03T09:35:36;102182.44;;;52.14;12.74
19553;BME280;9420;50.876;7.012;2023-05-03T09:38:03;102184.81;;;51.67;13.01
19553;BME280;9420;50.876;7.012;2023-05-03T09:40:32;102179.81;;;53.26;12.41
19553;BME280;9420;50.876;7.012;2023-05-03T09:43:07;102177.31;;;52.37;12.45
19553;BME280;9420;50.876;7.012;2023-05-03T09:45:35;102172.53;;;52.37;11.98
19553;BME280;9420;50.876;7.012;2023-05-03T09:48:05;102176.06;;;51.99;12.54
19553;BME280;9420;50.876;7.012;2023-05-03T09:50:34;102163.06;;;52.18;12.55
19553;BME280;9420;50.876;7.012;2023-05-03T09:53:04;102165.16;;;51.02;12.53
19553;BME280;9420;50.876;7.012;2023-05-03T09:55:34;102161.81;;;52.88;12.26
19553;BME280;9420;50.876;7.012;2023-05-03T09:58:02;102163.09;;;52.08;12.44
19553;BME280;9420;50.876;7.012;2023-05-03T10:00:35;102159.56;;;51.07;13.06
19553;BME280;9420;50.876;7.012;2023-05-03T10:03:08;102159.00;;;51.05;12.86
19553;BME280;9420;50.876;7.012;2023-05-03T10:05:43;102166.28;;;50.96;12.68
19553;BME280;9420;50.876;7.012;2023-05-03T10:08:18;102152.53;;;51.70;12.89
19553;BME280;9420;50.876;7.012;2023-05-03T10:10:50;102158.25;;;52.28;12.86
19553;BME280;9420;50.876;7.012;2023-05-03T10:13:20;102149.41;;;51.66;12.40
19553;BME280;9420;50.876;7.012;2023-05-03T10:15:54;102149.06;;;53.63;12.89
19553;BME280;9420;50.876;7.012;2023-05-03T10:18:28;102150.41;;;53.08;12.55
19553;BME280;9420;50.876;7.012;2023-05-03T10:21:01;102144.31;;;54.67;12.56
19553;BME280;9420;50.876;7.012;2023-05-03T10:23:30;102137.88;;;53.24;12.25
19553;BME280;9420;50.876;7.012;2023-05-03T10:26:13;102127.63;;;52.71;12.36
19553;BME280;9420;50.876;7.012;2023-05-03T10:28:41;102120.53;;;52.35;12.90
19553;BME280;9420;50.876;7.012;2023-05-03T10:31:42;102117.59;;;53.56;12.85
19553;BME280;9420;50.876;7.012;2023-05-03T10:34:29;102110.38;;;54.16;12.44
19553;BME280;9420;50.876;7.012;2023-05-03T10:37:01;102112.25;;;55.13;12.53
19553;BME280;9420;50.876;7.012;2023-05-03T10:39:29;102112.56;;;53.76;12.66
19553;BME280;9420;50.876;7.012;2023-05-03T10:42:01;102113.91;;;54.82;12.71
19553;BME280;9420;50.876;7.012;2023-05-03T10:44:37;102104.50;;;53.89;12.12
19553;BME280;9420;50.876;7.012;2023-05-03T10:47:11;102111.31;;;54.48;12.43
19553;BME280;9420;50.876;7.012;2023-05-03T10:49:39;102103.44;;;53.85;11.75
19553;BME280;9420;50.876;7.012;2023-05-03T10:52:46;102106.63;;;54.20;12.05
19553;BME280;9420;50.876;7.012;2023-05-03T10:55:17;102105.94;;;56.03;11.76
19553;BME280;9420;50.876;7.012;2023-05-03T10:57:48;102100.88;;;55.46;12.04
19553;BME280;9420;50.876;7.012;2023-05-03T11:00:22;102098.34;;;53.87;12.28
19553;BME280;9420;50.876;7.012;2023-05-03T11:03:33;102097.75;;;55.61;11.48
19553;BME280;9420;50.876;7.012;2023-05-03T11:06:03;102090.94;;;51.88;12.32
19553;BME280;9420;50.876;7.012;2023-05-03T11:08:30;102086.22;;;55.44;12.37
19553;BME280;9420;50.876;7.012;2023-05-03T11:11:03;102086.50;;;56.37;11.46
19553;BME280;9420;50.876;7.012;2023-05-03T11:13:36;102089.31;;;56.37;11.33
19553;BME280;9420;50.876;7.012;2023-05-03T11:16:04;102084.16;;;57.67;11.38
19553;BME280;9420;50.876;7.012;2023-05-03T11:18:31;102078.13;;;57.60;11.63
19553;BME280;9420;50.876;7.012;2023-05-03T11:20:59;102086.13;;;57.58;11.36
19553;BME280;9420;50.876;7.012;2023-05-03T11:23:27;102075.38;;;57.94;11.13
19553;BME280;9420;50.876;7.012;2023-05-03T11:25:54;102074.41;;;58.84;11.49
19553;BME280;9420;50.876;7.012;2023-05-03T11:28:23;102061.59;;;58.53;11.13
19553;BME280;9420;50.876;7.012;2023-05-03T11:30:52;102064.69;;;57.91;10.59
19553;BME280;9420;50.876;7.012;2023-05-03T11:33:19;102065.06;;;57.98;10.78
19553;BME280;9420;50.876;7.012;2023-05-03T11:35:47;102064.28;;;59.21;11.23
19553;BME280;9420;50.876;7.012;2023-05-03T11:38:14;102061.59;;;58.53;10.72
19553;BME280;9420;50.876;7.012;2023-05-03T11:40:41;102064.69;;;60.40;10.75
19553;BME280;9420;50.876;7.012;2023-05-03T11:43:08;102066.47;;;59.24;10.25
19553;BME280;9420;50.876;7.012;2023-05-03T11:45:40;102051.91;;;58.02;10.65
19553;BME280;9420;50.876;7.012;2023-05-03T11:48:11;102054.16;;;59.79;10.53
19553;BME280;9420;50.876;7.012;2023-05-03T11:50:47;102045.81;;;60.56;10.42
19553;BME280;9420;50.876;7.012;2023-05-03T11:53:17;102053.31;;;59.40;10.00
19553;BME280;9420;50.876;7.012;2023-05-03T11:55:47;102047.56;;;59.57;10.40
19553;BME280;9420;50.876;7.012;2023-05-03T11:58:17;102041.22;;;58.16;10.57
19553;BME280;9420;50.876;7.012;2023-05-03T12:00:47;102039.06;;;57.57;11.03
19553;BME280;9420;50.876;7.012;2023-05-03T12:03:21;102041.97;;;59.40;9.96
19553;BME280;9420;50.876;7.012;2023-05-03T12:05:50;102033.78;;;56.86;11.03
19553;BME280;9420;50.876;7.012;2023-05-03T12:08:18;102020.03;;;59.79;9.92
19553;BME280;9420;50.876;7.012;2023-05-03T12:10:47;102023.69;;;60.20;10.33
19553;BME280;9420;50.876;7.012;2023-05-03T12:13:14;102020.16;;;60.44;9.70
19553;BME280;9420;50.876;7.012;2023-05-03T12:15:43;102024.31;;;60.91;10.00
19553;BME280;9420;50.876;7.012;2023-05-03T12:18:11;102018.50;;;60.02;9.97
19553;BME280;9420;50.876;7.012;2023-05-03T12:20:40;102017.72;;;60.34;10.34
19553;BME280;9420;50.876;7.012;2023-05-03T12:23:07;102010.72;;;61.21;9.97
19553;BME280;9420;50.876;7.012;2023-05-03T12:25:36;102022.44;;;61.56;9.96
19553;BME280;9420;50.876;7.012;2023-05-03T12:28:05;102009.84;;;60.52;10.03
19553;BME280;9420;50.876;7.012;2023-05-03T12:30:35;102012.94;;;61.16;9.70
19553;BME280;9420;50.876;7.012;2023-05-03T12:33:02;102005.66;;;62.18;10.17
19553;BME280;9420;50.876;7.012;2023-05-03T12:35:29;102008.16;;;62.20;9.30
19553;BME280;9420;50.876;7.012;2023-05-03T12:37:57;102002.47;;;61.56;9.23
19553;BME280;9420;50.876;7.012;2023-05-03T12:40:26;102010.84;;;61.49;9.93
19553;BME280;9420;50.876;7.012;2023-05-03T12:42:54;101995.25;;;60.53;9.07
19553;BME280;9420;50.876;7.012;2023-05-03T12:45:22;101999.41;;;61.13;9.95
19553;BME280;9420;50.876;7.012;2023-05-03T12:47:49;101985.28;;;61.40;9.33
19553;BME280;9420;50.876;7.012;2023-05-03T12:50:16;101984.34;;;62.00;9.72
19553;BME280;9420;50.876;7.012;2023-05-03T12:52:43;101979.75;;;63.48;9.66
19553;BME280;9420;50.876;7.012;2023-05-03T12:55:11;101972.56;;;62.29;9.93
19553;BME280;9420;50.876;7.012;2023-05-03T12:57:39;101973.38;;;62.58;9.73
19553;BME280;9420;50.876;7.012;2023-05-03T13:00:08;101967.09;;;61.57;9.46
19553;BME280;9420;50.876;7.012;2023-05-03T13:02:36;101962.34;;;62.28;9.91
19553;BME280;9420;50.876;7.012;2023-05-03T13:05:04;101968.78;;;61.34;9.41
19553;BME280;9420;50.876;7.012;2023-05-03T13:07:31;101949.41;;;61.39;9.47
19553;BME280;9420;50.876;7.012;2023-05-03T13:09:58;101944.97;;;62.96;10.18